createdAt,value
2023-01-05T00:01:57.279Z,27.40
2023-01-05T00:07:01.045Z,24.80
2023-01-05T00:12:20.771Z,17.98
2023-01-05T00:17:41.599Z,17.63
2023-01-05T00:22:46.714Z,24.77
2023-01-05T00:27:51.401Z,42.83
2023-01-05T00:32:54.203Z,23.63
2023-01-05T00:37:57.982Z,28.45
2023-01-05T00:43:00.389Z,24.38
2023-01-05T00:48:02.842Z,22.30
2023-01-05T00:53:06.576Z,20.48
2023-01-05T00:58:08.936Z,27.83
2023-01-05T01:03:11.357Z,20.20
2023-01-05T01:08:15.198Z,31.17
2023-01-05T01:13:17.703Z,19.58
2023-01-05T01:18:20.129Z,18.70
2023-01-05T01:23:23.909Z,18.37
2023-01-05T01:28:26.240Z,19.20
2023-01-05T01:33:28.645Z,15.27
2023-01-05T01:38:32.443Z,20.52
2023-01-05T01:43:43.240Z,26.02
2023-01-05T01:48:48.102Z,15.15
2023-01-05T01:53:54.062Z,18.60
2023-01-05T01:58:56.476Z,20.90
2023-01-05T02:03:59.184Z,21.53
2023-01-05T02:09:03.206Z,13.95
2023-01-05T02:14:13.278Z,27.80
2023-01-05T02:19:30.601Z,14.75
2023-01-05T02:24:47.866Z,16.33
2023-01-05T02:30:03.634Z,15.50
2023-01-05T02:35:11.008Z,20.65
2023-01-05T02:40:17.431Z,18.70
2023-01-05T02:45:22.380Z,16.73
2023-01-05T02:50:29.267Z,13.10
2023-01-05T02:55:33.946Z,14.82
2023-01-05T03:00:39.981Z,23.65
2023-01-05T03:05:46.809Z,18.00
2023-01-05T03:11:11.407Z,18.63
2023-01-05T03:16:17.202Z,15.35
2023-01-05T03:21:21.466Z,17.45
2023-01-05T03:26:41.690Z,15.50
2023-01-05T03:32:04.921Z,22.65
2023-01-05T03:37:10.087Z,23.92
2023-01-05T03:42:12.714Z,28.48
2023-01-05T03:47:15.665Z,21.03
2023-01-05T03:52:19.413Z,19.50
2023-01-05T03:57:21.782Z,31.15
2023-01-05T04:02:24.298Z,20.20
2023-01-05T04:07:28.116Z,22.10
2023-01-05T04:12:30.579Z,20.38
2023-01-05T04:17:32.933Z,23.10
2023-01-05T04:22:36.757Z,24.45
2023-01-05T04:27:39.245Z,16.33
2023-01-05T04:32:41.636Z,24.93
2023-01-05T04:37:46.163Z,20.20
2023-01-05T04:42:48.805Z,18.55
2023-01-05T04:47:52.135Z,42.90
2023-01-05T04:57:58.252Z,23.85
2023-01-05T05:03:00.798Z,25.05
2023-01-05T05:08:03.327Z,25.37
2023-01-05T05:13:07.125Z,34.42
2023-01-05T05:18:09.943Z,27.70
2023-01-05T05:23:12.412Z,37.47
2023-01-05T05:28:16.244Z,25.35
2023-01-05T05:33:18.660Z,19.48
2023-01-05T05:38:21.077Z,25.13
2023-01-05T05:43:24.848Z,20.23
2023-01-05T05:48:27.313Z,30.17
2023-01-05T05:53:29.807Z,23.97
2023-01-05T05:58:33.600Z,24.40
2023-01-05T06:03:36.083Z,24.05
2023-01-05T06:08:38.488Z,22.00
2023-01-05T06:13:42.237Z,21.63
2023-01-05T06:18:44.658Z,22.38
2023-01-05T06:23:47.049Z,20.40
2023-01-05T06:28:50.829Z,20.60
2023-01-05T06:33:53.408Z,37.10
2023-01-05T06:38:55.836Z,20.63
2023-01-05T06:43:59.566Z,23.25
2023-01-05T06:49:01.984Z,25.13
2023-01-05T06:54:04.426Z,20.95
2023-01-05T06:59:08.327Z,23.73
2023-01-05T07:04:10.800Z,16.75
2023-01-05T07:09:13.218Z,20.63
2023-01-05T07:14:17.312Z,20.38
2023-01-05T07:19:19.754Z,21.38
2023-01-05T07:24:22.213Z,26.33
2023-01-05T07:29:26.021Z,15.10
2023-01-05T07:34:28.425Z,26.35
2023-01-05T07:39:30.865Z,18.60
2023-01-05T07:44:34.615Z,19.23
2023-01-05T07:49:36.977Z,17.65
2023-01-05T07:54:39.408Z,23.77
2023-01-05T07:59:43.190Z,24.87
2023-01-05T08:04:45.608Z,20.23
2023-01-05T08:10:05.588Z,18.60
2023-01-05T08:15:09.905Z,17.92
2023-01-05T08:20:13.637Z,23.63
2023-01-05T08:25:16.095Z,14.70
2023-01-05T08:30:19.923Z,21.03
2023-01-05T08:35:22.453Z,37.13
2023-01-05T08:40:25.188Z,21.20
2023-01-05T08:45:29.889Z,22.90
2023-01-05T08:50:32.609Z,23.05
2023-01-05T08:55:35.098Z,24.70
2023-01-05T09:00:38.847Z,28.20
2023-01-05T09:05:41.286Z,19.63
2023-01-05T09:10:43.669Z,23.03
2023-01-05T09:15:47.385Z,21.35
2023-01-05T09:20:55.580Z,24.25
2023-01-05T09:25:58.270Z,20.67
2023-01-05T09:31:06.711Z,25.90
2023-01-05T09:36:10.189Z,23.13
2023-01-05T09:46:17.443Z,24.83
2023-01-05T09:51:19.948Z,13.23
2023-01-05T09:57:07.282Z,20.60
2023-01-05T10:01:52.257Z,16.42
2023-01-05T10:06:58.332Z,24.63
2023-01-05T10:12:20.541Z,20.52
2023-01-05T10:17:41.272Z,23.15
2023-01-05T10:22:51.878Z,18.13
2023-01-05T10:27:58.596Z,29.73
2023-01-05T10:33:25.564Z,18.80
2023-01-05T10:38:32.798Z,19.83
2023-01-05T10:43:50.155Z,20.70
2023-01-05T10:48:53.925Z,23.35
2023-01-05T10:53:56.338Z,20.33
2023-01-05T10:59:08.191Z,17.40
2023-01-05T11:04:29.237Z,19.35
2023-01-05T11:09:40.464Z,21.92
2023-01-05T11:14:44.206Z,22.67
2023-01-05T11:19:49.271Z,24.70
2023-01-05T11:24:51.711Z,19.30
2023-01-05T11:30:08.983Z,15.13
2023-01-05T11:35:19.214Z,15.25
2023-01-05T11:40:24.690Z,21.08
2023-01-05T11:45:29.243Z,21.75
2023-01-05T11:50:35.175Z,16.23
2023-01-05T11:55:38.310Z,16.05
2023-01-05T12:00:46.460Z,21.67
2023-01-05T12:05:51.665Z,20.17
2023-01-05T12:11:01.907Z,24.95
2023-01-05T12:16:14.526Z,20.80
2023-01-05T12:21:21.706Z,15.20
2023-01-05T12:26:26.355Z,23.85
2023-01-05T12:33:44.630Z,19.77
2023-01-05T12:37:15.742Z,20.48
2023-01-05T12:42:25.253Z,27.80
2023-01-05T12:47:36.885Z,35.13
2023-01-05T12:52:40.898Z,20.27
2023-01-05T12:57:48.781Z,19.67
2023-01-05T13:02:55.480Z,22.70
2023-01-05T13:08:01.602Z,22.25
2023-01-05T13:13:07.018Z,17.48
2023-01-05T13:18:12.710Z,18.67
2023-01-05T13:23:17.354Z,20.08
2023-01-05T13:28:23.673Z,20.95
2023-01-05T13:33:33.927Z,19.27
2023-01-05T13:38:56.634Z,18.08
2023-01-05T13:44:19.924Z,24.30
2023-01-05T13:49:34.540Z,32.25
2023-01-05T13:54:59.998Z,17.55
2023-01-05T14:00:07.637Z,16.10
2023-01-05T14:05:17.987Z,13.95
2023-01-05T14:10:21.840Z,22.27
2023-01-05T14:15:42.286Z,15.15
2023-01-05T14:20:48.819Z,17.05
2023-01-05T14:25:53.671Z,13.20
2023-01-05T14:31:25.924Z,17.90
2023-01-05T14:36:32.584Z,12.25
2023-01-05T14:41:35.428Z,17.33
2023-01-05T14:46:46.357Z,26.00
2023-01-05T14:51:54.801Z,15.55
2023-01-05T14:57:12.103Z,16.58
2023-01-05T15:02:18.546Z,19.67
2023-01-05T15:07:32.506Z,16.23
2023-01-05T15:12:39.081Z,20.65
2023-01-05T15:17:59.148Z,18.65
2023-01-05T15:23:18.813Z,18.88
2023-01-05T15:28:34.976Z,14.75
2023-01-05T15:33:41.152Z,17.33
2023-01-05T15:38:47.170Z,15.13
2023-01-05T15:43:50.010Z,25.92
2023-01-05T15:48:54.441Z,16.52
2023-01-05T15:53:59.308Z,25.70
2023-01-05T15:59:01.931Z,20.50
2023-01-05T16:04:09.026Z,19.53
2023-01-05T16:09:22.564Z,31.40
2023-01-05T16:14:28.715Z,26.73
2023-01-05T16:19:33.359Z,33.97
2023-01-05T16:24:39.767Z,27.15
2023-01-05T16:29:44.412Z,22.10
2023-01-05T16:34:46.861Z,22.55
2023-01-05T16:39:50.631Z,26.70
2023-01-05T16:44:53.829Z,30.33
2023-01-05T16:49:58.242Z,31.35
2023-01-05T16:55:23.644Z,40.53
2023-01-05T17:00:38.523Z,30.80
2023-01-05T17:05:40.953Z,31.35
2023-01-05T17:10:43.738Z,37.08
2023-01-05T17:15:48.906Z,35.22
2023-01-05T17:20:51.908Z,26.75
2023-01-05T17:25:54.800Z,50.80
2023-01-05T17:30:58.662Z,36.55
2023-01-05T17:36:01.559Z,48.38
2023-01-05T17:41:03.960Z,44.47
2023-01-05T17:46:08.180Z,46.22
2023-01-05T17:51:10.721Z,37.17
2023-01-05T17:56:13.213Z,50.30
2023-01-05T18:01:16.961Z,40.83
2023-01-05T18:06:19.460Z,51.47
2023-01-05T18:11:22.479Z,48.90
2023-01-05T18:16:26.555Z,43.33
2023-01-05T18:21:29.577Z,50.78
2023-01-05T18:26:32.020Z,54.50
2023-01-05T18:31:38.571Z,51.72
2023-01-05T18:36:43.764Z,54.53
2023-01-05T18:41:46.191Z,58.72
2023-01-05T18:46:50.953Z,48.05
2023-01-05T18:51:53.490Z,57.67
2023-01-05T18:56:57.152Z,52.15
2023-01-05T19:02:01.184Z,52.35
2023-01-05T19:07:03.554Z,57.42
2023-01-05T19:12:06.183Z,59.35
2023-01-05T19:17:09.895Z,46.00
2023-01-05T19:22:12.296Z,55.30
2023-01-05T19:27:14.661Z,45.78
2023-01-05T19:32:18.353Z,54.15
2023-01-05T19:37:20.815Z,40.60
2023-01-05T19:42:23.224Z,52.90
2023-01-05T19:47:28.865Z,49.88
2023-01-05T19:52:31.214Z,40.80
2023-01-05T19:57:33.570Z,41.13
2023-01-05T20:02:37.307Z,54.17
2023-01-05T20:07:41.448Z,46.25
2023-01-05T20:12:43.840Z,42.70
2023-01-05T20:17:47.544Z,52.55
2023-01-05T20:22:52.245Z,43.55
2023-01-05T20:27:54.661Z,40.60
2023-01-05T20:32:58.353Z,43.67
2023-01-05T20:38:00.794Z,41.35
2023-01-05T20:43:03.149Z,43.30
2023-01-05T20:48:08.327Z,44.22
2023-01-05T20:53:10.978Z,46.97
2023-01-05T20:58:14.484Z,52.77
2023-01-05T21:03:18.230Z,45.47
2023-01-05T21:08:20.642Z,42.30
2023-01-05T21:13:31.292Z,42.00
2023-01-05T21:18:36.206Z,45.08
2023-01-05T21:23:38.807Z,43.78
2023-01-05T21:28:42.877Z,47.87
2023-01-05T21:33:47.043Z,46.20
2023-01-05T21:39:00.279Z,44.28
2023-01-05T21:44:07.088Z,48.53
2023-01-05T21:49:11.531Z,47.33
2023-01-05T21:54:31.507Z,44.88
2023-01-05T21:59:33.952Z,44.53
2023-01-05T22:04:37.943Z,48.33
2023-01-05T22:09:40.308Z,46.15
2023-01-05T22:14:42.701Z,41.00
2023-01-05T22:19:46.377Z,39.50
2023-01-05T22:24:49.626Z,39.58
2023-01-05T22:29:51.950Z,39.08
2023-01-05T22:34:55.738Z,30.25
2023-01-05T22:39:58.127Z,33.72
2023-01-05T22:45:00.481Z,27.63
2023-01-05T22:50:04.244Z,22.67
2023-01-05T22:55:06.885Z,23.70
2023-01-05T23:00:09.808Z,20.80
2023-01-05T23:05:14.166Z,19.38
2023-01-05T23:10:16.582Z,18.00
2023-01-05T23:15:18.962Z,15.27
2023-01-05T23:20:25.040Z,14.93
2023-01-05T23:25:27.420Z,10.68
2023-01-05T23:30:29.825Z,11.32
2023-01-05T23:35:36.408Z,12.52
2023-01-05T23:40:41.452Z,12.77
2023-01-05T23:45:45.033Z,12.10
2023-01-05T23:50:48.915Z,8.70
2023-01-05T23:55:51.579Z,8.07
